sensor_id;sensor_type;location;lat;lon;timestamp;P1;durP1;ratioP1;P2;durP2;ratioP2
12962;SDS011;6546;49.882;8.666;2022-09-23T00:00:19;4.20;;;2.67;;
12962;SDS011;6546;49.882;8.666;2022-09-23T00:02:46;6.67;;;2.93;;
12962;SDS011;6546;49.882;8.666;2022-09-23T00:05:14;4.37;;;2.37;;
12962;SDS011;6546;49.882;8.666;2022-09-23T00:07:40;3.20;;;2.90;;
12962;SDS011;6546;49.882;8.666;2022-09-23T00:10:07;4.27;;;2.63;;
12962;SDS011;6546;49.882;8.666;2022-09-23T00:12:34;2.63;;;2.40;;
12962;SDS011;6546;49.882;8.666;2022-09-23T00:15:01;6.10;;;2.77;;
12962;SDS011;6546;49.882;8.666;2022-09-23T00:17:28;2.73;;;2.30;;
12962;SDS011;6546;49.882;8.666;2022-09-23T00:19:57;2.93;;;2.43;;
12962;SDS011;6546;49.882;8.666;2022-09-23T00:22:24;2.47;;;2.13;;
12962;SDS011;6546;49.882;8.666;2022-09-23T00:24:51;3.37;;;2.70;;
12962;SDS011;6546;49.882;8.666;2022-09-23T00:27:17;2.67;;;2.40;;
12962;SDS011;6546;49.882;8.666;2022-09-23T00:29:45;3.10;;;2.47;;
12962;SDS011;6546;49.882;8.666;2022-09-23T00:32:11;3.07;;;2.67;;
12962;SDS011;6546;49.882;8.666;2022-09-23T00:34:38;3.30;;;3.00;;
12962;SDS011;6546;49.882;8.666;2022-09-23T00:37:06;3.97;;;2.70;;
12962;SDS011;6546;49.882;8.666;2022-09-23T00:39:33;4.00;;;3.17;;
12962;SDS011;6546;49.882;8.666;2022-09-23T00:41:59;5.67;;;3.07;;
12962;SDS011;6546;49.882;8.666;2022-09-23T00:44:38;3.77;;;2.77;;
12962;SDS011;6546;49.882;8.666;2022-09-23T00:47:10;3.07;;;2.77;;
12962;SDS011;6546;49.882;8.666;2022-09-23T00:49:39;2.87;;;2.37;;
12962;SDS011;6546;49.882;8.666;2022-09-23T00:52:09;6.20;;;2.60;;
12962;SDS011;6546;49.882;8.666;2022-09-23T00:54:40;3.37;;;2.27;;
12962;SDS011;6546;49.882;8.666;2022-09-23T00:57:10;4.80;;;2.77;;
12962;SDS011;6546;49.882;8.666;2022-09-23T00:59:37;5.70;;;2.70;;
12962;SDS011;6546;49.882;8.666;2022-09-23T01:02:04;3.10;;;2.80;;
12962;SDS011;6546;49.882;8.666;2022-09-23T01:04:31;3.70;;;2.90;;
12962;SDS011;6546;49.882;8.666;2022-09-23T01:06:59;3.30;;;3.00;;
12962;SDS011;6546;49.882;8.666;2022-09-23T01:09:27;3.47;;;2.80;;
12962;SDS011;6546;49.882;8.666;2022-09-23T01:11:56;5.47;;;3.40;;
12962;SDS011;6546;49.882;8.666;2022-09-23T01:14:33;3.07;;;2.70;;
12962;SDS011;6546;49.882;8.666;2022-09-23T01:17:06;2.80;;;2.60;;
12962;SDS011;6546;49.882;8.666;2022-09-23T01:19:45;4.93;;;2.87;;
12962;SDS011;6546;49.882;8.666;2022-09-23T01:22:29;3.33;;;2.73;;
12962;SDS011;6546;49.882;8.666;2022-09-23T01:25:09;2.97;;;2.57;;
12962;SDS011;6546;49.882;8.666;2022-09-23T01:27:57;3.50;;;2.53;;
12962;SDS011;6546;49.882;8.666;2022-09-23T01:30:48;3.30;;;2.93;;
12962;SDS011;6546;49.882;8.666;2022-09-23T01:33:23;2.80;;;2.50;;
12962;SDS011;6546;49.882;8.666;2022-09-23T01:35:59;5.27;;;2.67;;
12962;SDS011;6546;49.882;8.666;2022-09-23T01:38:36;3.10;;;2.80;;
12962;SDS011;6546;49.882;8.666;2022-09-23T01:41:11;3.60;;;2.57;;
12962;SDS011;6546;49.882;8.666;2022-09-23T01:43:45;3.00;;;2.40;;
12962;SDS011;6546;49.882;8.666;2022-09-23T01:46:20;3.23;;;2.83;;
12962;SDS011;6546;49.882;8.666;2022-09-23T01:48:53;3.20;;;2.90;;
12962;SDS011;6546;49.882;8.666;2022-09-23T01:51:27;3.70;;;2.70;;
12962;SDS011;6546;49.882;8.666;2022-09-23T01:53:59;3.10;;;2.80;;
12962;SDS011;6546;49.882;8.666;2022-09-23T01:56:32;3.77;;;2.63;;
12962;SDS011;6546;49.882;8.666;2022-09-23T01:59:04;3.80;;;2.50;;
12962;SDS011;6546;49.882;8.666;2022-09-23T02:01:37;3.30;;;2.70;;
12962;SDS011;6546;49.882;8.666;2022-09-23T02:04:08;2.63;;;2.43;;
12962;SDS011;6546;49.882;8.666;2022-09-23T02:06:42;3.60;;;2.30;;
12962;SDS011;6546;49.882;8.666;2022-09-23T02:09:12;2.73;;;2.40;;
12962;SDS011;6546;49.882;8.666;2022-09-23T02:11:41;3.07;;;2.77;;
12962;SDS011;6546;49.882;8.666;2022-09-23T02:14:13;2.70;;;2.50;;
12962;SDS011;6546;49.882;8.666;2022-09-23T02:16:45;3.33;;;3.03;;
12962;SDS011;6546;49.882;8.666;2022-09-23T02:19:14;3.70;;;2.63;;
12962;SDS011;6546;49.882;8.666;2022-09-23T02:21:48;3.07;;;2.70;;
12962;SDS011;6546;49.882;8.666;2022-09-23T02:24:19;5.30;;;2.73;;
12962;SDS011;6546;49.882;8.666;2022-09-23T02:26:50;3.47;;;2.90;;
12962;SDS011;6546;49.882;8.666;2022-09-23T02:29:20;3.63;;;3.17;;
12962;SDS011;6546;49.882;8.666;2022-09-23T02:31:56;3.33;;;2.80;;
12962;SDS011;6546;49.882;8.666;2022-09-23T02:34:35;3.83;;;3.13;;
12962;SDS011;6546;49.882;8.666;2022-09-23T02:37:10;4.67;;;2.77;;
12962;SDS011;6546;49.882;8.666;2022-09-23T02:39:49;5.77;;;3.10;;
12962;SDS011;6546;49.882;8.666;2022-09-23T02:42:22;3.37;;;2.40;;
12962;SDS011;6546;49.882;8.666;2022-09-23T02:44:53;3.33;;;2.80;;
12962;SDS011;6546;49.882;8.666;2022-09-23T02:47:21;3.77;;;2.47;;
12962;SDS011;6546;49.882;8.666;2022-09-23T02:49:53;3.20;;;2.90;;
12962;SDS011;6546;49.882;8.666;2022-09-23T02:52:20;3.83;;;2.67;;
12962;SDS011;6546;49.882;8.666;2022-09-23T02:54:48;4.50;;;2.77;;
12962;SDS011;6546;49.882;8.666;2022-09-23T02:57:16;3.33;;;2.83;;
12962;SDS011;6546;49.882;8.666;2022-09-23T02:59:42;4.03;;;3.00;;
12962;SDS011;6546;49.882;8.666;2022-09-23T03:02:12;7.17;;;3.33;;
12962;SDS011;6546;49.882;8.666;2022-09-23T03:04:53;3.97;;;3.00;;
12962;SDS011;6546;49.882;8.666;2022-09-23T03:07:31;3.97;;;2.93;;
12962;SDS011;6546;49.882;8.666;2022-09-23T03:10:05;3.23;;;2.93;;
12962;SDS011;6546;49.882;8.666;2022-09-23T03:12:37;4.30;;;3.03;;
12962;SDS011;6546;49.882;8.666;2022-09-23T03:15:16;4.80;;;2.67;;
12962;SDS011;6546;49.882;8.666;2022-09-23T03:17:48;3.20;;;2.90;;
12962;SDS011;6546;49.882;8.666;2022-09-23T03:20:24;5.47;;;2.93;;
12962;SDS011;6546;49.882;8.666;2022-09-23T03:22:58;3.33;;;2.70;;
12962;SDS011;6546;49.882;8.666;2022-09-23T03:25:29;3.97;;;3.40;;
12962;SDS011;6546;49.882;8.666;2022-09-23T03:27:59;3.27;;;2.97;;
12962;SDS011;6546;49.882;8.666;2022-09-23T03:30:27;3.37;;;3.07;;
12962;SDS011;6546;49.882;8.666;2022-09-23T03:32:55;3.53;;;3.00;;
12962;SDS011;6546;49.882;8.666;2022-09-23T03:35:26;3.27;;;2.97;;
12962;SDS011;6546;49.882;8.666;2022-09-23T03:37:58;4.53;;;3.27;;
12962;SDS011;6546;49.882;8.666;2022-09-23T03:40:31;4.83;;;3.03;;
12962;SDS011;6546;49.882;8.666;2022-09-23T03:43:07;3.70;;;3.40;;
12962;SDS011;6546;49.882;8.666;2022-09-23T03:45:35;4.90;;;3.50;;
12962;SDS011;6546;49.882;8.666;2022-09-23T03:48:02;4.17;;;3.63;;
12962;SDS011;6546;49.882;8.666;2022-09-23T03:50:30;4.40;;;3.83;;
12962;SDS011;6546;49.882;8.666;2022-09-23T03:52:56;3.30;;;3.00;;
12962;SDS011;6546;49.882;8.666;2022-09-23T03:55:23;3.47;;;3.17;;
12962;SDS011;6546;49.882;8.666;2022-09-23T03:57:49;4.67;;;3.40;;
12962;SDS011;6546;49.882;8.666;2022-09-23T04:00:16;4.00;;;3.23;;
12962;SDS011;6546;49.882;8.666;2022-09-23T04:02:43;4.20;;;3.80;;
12962;SDS011;6546;49.882;8.666;2022-09-23T04:05:10;3.80;;;3.50;;
12962;SDS011;6546;49.882;8.666;2022-09-23T04:07:39;3.47;;;3.17;;
12962;SDS011;6546;49.882;8.666;2022-09-23T04:10:06;5.27;;;3.77;;
12962;SDS011;6546;49.882;8.666;2022-09-23T04:12:34;4.50;;;3.83;;
12962;SDS011;6546;49.882;8.666;2022-09-23T04:15:00;6.07;;;3.70;;
12962;SDS011;6546;49.882;8.666;2022-09-23T04:17:27;6.70;;;3.73;;
12962;SDS011;6546;49.882;8.666;2022-09-23T04:19:54;5.30;;;3.50;;
12962;SDS011;6546;49.882;8.666;2022-09-23T04:22:20;5.40;;;3.77;;
12962;SDS011;6546;49.882;8.666;2022-09-23T04:24:48;5.43;;;4.13;;
12962;SDS011;6546;49.882;8.666;2022-09-23T04:27:15;4.17;;;3.77;;
12962;SDS011;6546;49.882;8.666;2022-09-23T04:29:41;6.70;;;4.37;;
12962;SDS011;6546;49.882;8.666;2022-09-23T04:32:08;4.30;;;3.90;;
12962;SDS011;6546;49.882;8.666;2022-09-23T04:34:35;5.10;;;4.23;;
12962;SDS011;6546;49.882;8.666;2022-09-23T04:37:01;5.27;;;3.80;;
12962;SDS011;6546;49.882;8.666;2022-09-23T04:39:28;5.03;;;4.47;;
12962;SDS011;6546;49.882;8.666;2022-09-23T04:41:56;5.00;;;4.20;;
12962;SDS011;6546;49.882;8.666;2022-09-23T04:44:23;4.60;;;4.17;;
12962;SDS011;6546;49.882;8.666;2022-09-23T04:46:52;4.83;;;4.33;;
12962;SDS011;6546;49.882;8.666;2022-09-23T04:49:18;5.93;;;4.17;;
12962;SDS011;6546;49.882;8.666;2022-09-23T04:51:45;6.67;;;4.40;;
12962;SDS011;6546;49.882;8.666;2022-09-23T04:54:12;4.80;;;4.30;;
12962;SDS011;6546;49.882;8.666;2022-09-23T04:56:39;5.17;;;3.80;;
12962;SDS011;6546;49.882;8.666;2022-09-23T04:59:07;4.40;;;4.00;;
12962;SDS011;6546;49.882;8.666;2022-09-23T05:01:34;4.80;;;4.30;;
12962;SDS011;6546;49.882;8.666;2022-09-23T05:04:03;4.27;;;3.87;;
12962;SDS011;6546;49.882;8.666;2022-09-23T05:06:31;4.50;;;4.10;;
12962;SDS011;6546;49.882;8.666;2022-09-23T05:08:59;4.40;;;3.97;;
12962;SDS011;6546;49.882;8.666;2022-09-23T05:11:27;3.80;;;3.50;;
12962;SDS011;6546;49.882;8.666;2022-09-23T05:13:55;4.77;;;4.27;;
12962;SDS011;6546;49.882;8.666;2022-09-23T05:16:23;4.37;;;3.97;;
12962;SDS011;6546;49.882;8.666;2022-09-23T05:18:50;5.20;;;3.93;;
12962;SDS011;6546;49.882;8.666;2022-09-23T05:21:18;5.53;;;4.00;;
12962;SDS011;6546;49.882;8.666;2022-09-23T05:23:46;5.50;;;4.43;;
12962;SDS011;6546;49.882;8.666;2022-09-23T05:26:14;4.37;;;3.97;;
12962;SDS011;6546;49.882;8.666;2022-09-23T05:28:41;4.40;;;4.00;;
12962;SDS011;6546;49.882;8.666;2022-09-23T05:31:08;7.93;;;5.30;;
12962;SDS011;6546;49.882;8.666;2022-09-23T05:33:40;8.13;;;6.63;;
12962;SDS011;6546;49.882;8.666;2022-09-23T05:36:10;5.77;;;4.23;;
12962;SDS011;6546;49.882;8.666;2022-09-23T05:38:36;4.67;;;4.17;;
12962;SDS011;6546;49.882;8.666;2022-09-23T05:41:04;6.33;;;4.80;;
12962;SDS011;6546;49.882;8.666;2022-09-23T05:43:32;7.73;;;5.63;;
12962;SDS011;6546;49.882;8.666;2022-09-23T05:46:02;5.03;;;4.53;;
12962;SDS011;6546;49.882;8.666;2022-09-23T05:48:30;5.57;;;4.03;;
12962;SDS011;6546;49.882;8.666;2022-09-23T05:50:59;5.30;;;4.67;;
12962;SDS011;6546;49.882;8.666;2022-09-23T05:53:26;5.33;;;4.30;;
12962;SDS011;6546;49.882;8.666;2022-09-23T05:55:54;4.73;;;4.07;;
12962;SDS011;6546;49.882;8.666;2022-09-23T05:58:21;4.93;;;3.90;;
12962;SDS011;6546;49.882;8.666;2022-09-23T06:00:48;3.70;;;3.30;;
12962;SDS011;6546;49.882;8.666;2022-09-23T06:03:16;4.10;;;3.70;;
12962;SDS011;6546;49.882;8.666;2022-09-23T06:05:44;5.10;;;3.83;;
12962;SDS011;6546;49.882;8.666;2022-09-23T06:08:12;4.87;;;3.77;;
12962;SDS011;6546;49.882;8.666;2022-09-23T06:10:41;4.47;;;3.93;;
12962;SDS011;6546;49.882;8.666;2022-09-23T06:13:10;6.00;;;3.73;;
12962;SDS011;6546;49.882;8.666;2022-09-23T06:15:37;4.43;;;3.00;;
12962;SDS011;6546;49.882;8.666;2022-09-23T06:18:04;4.37;;;3.97;;
12962;SDS011;6546;49.882;8.666;2022-09-23T06:20:32;4.30;;;3.90;;
12962;SDS011;6546;49.882;8.666;2022-09-23T06:23:09;5.60;;;3.67;;
12962;SDS011;6546;49.882;8.666;2022-09-23T06:25:37;4.53;;;4.10;;
12962;SDS011;6546;49.882;8.666;2022-09-23T06:28:04;3.73;;;3.43;;
12962;SDS011;6546;49.882;8.666;2022-09-23T06:30:36;4.37;;;3.97;;
12962;SDS011;6546;49.882;8.666;2022-09-23T06:33:03;4.40;;;4.00;;
12962;SDS011;6546;49.882;8.666;2022-09-23T06:35:29;4.00;;;3.60;;
12962;SDS011;6546;49.882;8.666;2022-09-23T06:37:57;4.10;;;3.80;;
12962;SDS011;6546;49.882;8.666;2022-09-23T06:40:24;4.90;;;4.03;;
12962;SDS011;6546;49.882;8.666;2022-09-23T06:42:57;6.93;;;4.40;;
12962;SDS011;6546;49.882;8.666;2022-09-23T06:45:24;4.67;;;4.07;;
12962;SDS011;6546;49.882;8.666;2022-09-23T06:47:52;4.23;;;3.83;;
12962;SDS011;6546;49.882;8.666;2022-09-23T06:50:21;4.90;;;3.80;;
12962;SDS011;6546;49.882;8.666;2022-09-23T06:52:49;6.33;;;3.97;;
12962;SDS011;6546;49.882;8.666;2022-09-23T06:55:17;4.97;;;3.97;;
12962;SDS011;6546;49.882;8.666;2022-09-23T06:57:43;5.60;;;4.07;;
12962;SDS011;6546;49.882;8.666;2022-09-23T07:00:12;4.47;;;4.00;;
12962;SDS011;6546;49.882;8.666;2022-09-23T07:02:39;4.47;;;4.07;;
12962;SDS011;6546;49.882;8.666;2022-09-23T07:05:06;5.53;;;4.53;;
12962;SDS011;6546;49.882;8.666;2022-09-23T07:07:33;5.47;;;3.63;;
12962;SDS011;6546;49.882;8.666;2022-09-23T07:10:00;4.27;;;3.87;;
12962;SDS011;6546;49.882;8.666;2022-09-23T07:12:27;5.60;;;3.93;;
12962;SDS011;6546;49.882;8.666;2022-09-23T07:14:54;5.30;;;4.70;;
12962;SDS011;6546;49.882;8.666;2022-09-23T07:17:22;4.63;;;3.97;;
12962;SDS011;6546;49.882;8.666;2022-09-23T07:19:49;4.40;;;4.00;;
12962;SDS011;6546;49.882;8.666;2022-09-23T07:22:19;6.43;;;4.50;;
12962;SDS011;6546;49.882;8.666;2022-09-23T07:24:46;5.40;;;4.57;;
12962;SDS011;6546;49.882;8.666;2022-09-23T07:27:12;6.00;;;4.80;;
12962;SDS011;6546;49.882;8.666;2022-09-23T07:29:40;4.83;;;4.33;;
12962;SDS011;6546;49.882;8.666;2022-09-23T07:32:07;7.17;;;4.60;;
12962;SDS011;6546;49.882;8.666;2022-09-23T07:34:35;6.43;;;4.20;;
12962;SDS011;6546;49.882;8.666;2022-09-23T07:37:02;6.07;;;4.60;;
12962;SDS011;6546;49.882;8.666;2022-09-23T07:39:28;5.07;;;4.07;;
12962;SDS011;6546;49.882;8.666;2022-09-23T07:41:55;5.23;;;4.73;;
12962;SDS011;6546;49.882;8.666;2022-09-23T07:44:23;5.77;;;4.13;;
12962;SDS011;6546;49.882;8.666;2022-09-23T07:46:51;4.50;;;4.10;;
12962;SDS011;6546;49.882;8.666;2022-09-23T07:49:17;5.93;;;4.10;;
12962;SDS011;6546;49.882;8.666;2022-09-23T07:51:45;5.50;;;3.70;;
12962;SDS011;6546;49.882;8.666;2022-09-23T07:54:13;6.07;;;4.33;;
12962;SDS011;6546;49.882;8.666;2022-09-23T07:56:42;4.40;;;4.00;;
12962;SDS011;6546;49.882;8.666;2022-09-23T07:59:11;6.33;;;4.10;;
12962;SDS011;6546;49.882;8.666;2022-09-23T08:01:42;3.87;;;3.47;;
12962;SDS011;6546;49.882;8.666;2022-09-23T08:04:11;4.33;;;3.50;;
12962;SDS011;6546;49.882;8.666;2022-09-23T08:06:40;4.43;;;3.50;;
12962;SDS011;6546;49.882;8.666;2022-09-23T08:09:09;4.37;;;3.87;;
12962;SDS011;6546;49.882;8.666;2022-09-23T08:11:36;4.87;;;3.60;;
12962;SDS011;6546;49.882;8.666;2022-09-23T08:14:12;3.93;;;3.53;;
12962;SDS011;6546;49.882;8.666;2022-09-23T08:16:42;4.03;;;3.63;;
12962;SDS011;6546;49.882;8.666;2022-09-23T08:19:13;4.53;;;3.43;;
12962;SDS011;6546;49.882;8.666;2022-09-23T08:21:40;4.80;;;3.67;;
12962;SDS011;6546;49.882;8.666;2022-09-23T08:24:09;4.17;;;3.80;;
12962;SDS011;6546;49.882;8.666;2022-09-23T08:26:38;4.53;;;4.13;;
12962;SDS011;6546;49.882;8.666;2022-09-23T08:29:05;4.83;;;4.13;;
12962;SDS011;6546;49.882;8.666;2022-09-23T08:31:34;5.07;;;3.90;;
12962;SDS011;6546;49.882;8.666;2022-09-23T08:34:01;7.10;;;4.17;;
12962;SDS011;6546;49.882;8.666;2022-09-23T08:46:58;5.43;;;4.40;;
12962;SDS011;6546;49.882;8.666;2022-09-23T08:49:35;4.57;;;3.87;;
12962;SDS011;6546;49.882;8.666;2022-09-23T08:52:07;4.40;;;4.00;;
12962;SDS011;6546;49.882;8.666;2022-09-23T08:54:40;6.20;;;4.10;;
12962;SDS011;6546;49.882;8.666;2022-09-23T08:57:08;4.37;;;3.47;;
12962;SDS011;6546;49.882;8.666;2022-09-23T08:59:50;4.20;;;3.80;;
12962;SDS011;6546;49.882;8.666;2022-09-23T09:02:18;4.13;;;3.63;;
12962;SDS011;6546;49.882;8.666;2022-09-23T09:04:48;4.13;;;3.10;;
12962;SDS011;6546;49.882;8.666;2022-09-23T09:07:19;5.33;;;3.47;;
12962;SDS011;6546;49.882;8.666;2022-09-23T09:09:49;3.57;;;3.10;;
12962;SDS011;6546;49.882;8.666;2022-09-23T09:12:19;3.90;;;3.50;;
12962;SDS011;6546;49.882;8.666;2022-09-23T09:14:51;4.13;;;3.47;;
12962;SDS011;6546;49.882;8.666;2022-09-23T09:17:28;5.17;;;3.53;;
12962;SDS011;6546;49.882;8.666;2022-09-23T09:20:07;3.37;;;3.07;;
12962;SDS011;6546;49.882;8.666;2022-09-23T09:22:49;5.67;;;3.50;;
12962;SDS011;6546;49.882;8.666;2022-09-23T09:25:23;3.20;;;2.93;;
12962;SDS011;6546;49.882;8.666;2022-09-23T09:28:03;4.10;;;3.60;;
12962;SDS011;6546;49.882;8.666;2022-09-23T09:30:40;3.77;;;3.33;;
12962;SDS011;6546;49.882;8.666;2022-09-23T09:33:12;4.20;;;3.80;;
12962;SDS011;6546;49.882;8.666;2022-09-23T09:35:47;4.67;;;3.33;;
12962;SDS011;6546;49.882;8.666;2022-09-23T09:38:25;5.70;;;3.53;;
12962;SDS011;6546;49.882;8.666;2022-09-23T09:40:52;4.70;;;3.80;;
12962;SDS011;6546;49.882;8.666;2022-09-23T09:43:25;4.37;;;3.20;;
12962;SDS011;6546;49.882;8.666;2022-09-23T09:45:56;3.73;;;3.43;;
12962;SDS011;6546;49.882;8.666;2022-09-23T09:48:37;3.93;;;3.13;;
12962;SDS011;6546;49.882;8.666;2022-09-23T09:51:16;4.50;;;3.27;;
12962;SDS011;6546;49.882;8.666;2022-09-23T09:53:45;5.40;;;3.30;;
12962;SDS011;6546;49.882;8.666;2022-09-23T09:56:16;3.43;;;3.07;;
12962;SDS011;6546;49.882;8.666;2022-09-23T09:58:45;4.30;;;3.10;;
12962;SDS011;6546;49.882;8.666;2022-09-23T10:01:22;3.90;;;3.10;;
12962;SDS011;6546;49.882;8.666;2022-09-23T10:03:52;4.17;;;2.83;;
12962;SDS011;6546;49.882;8.666;2022-09-23T10:06:21;4.53;;;3.13;;
12962;SDS011;6546;49.882;8.666;2022-09-23T10:11:38;3.67;;;3.07;;
12962;SDS011;6546;49.882;8.666;2022-09-23T10:14:09;3.63;;;3.23;;
12962;SDS011;6546;49.882;8.666;2022-09-23T10:16:41;6.53;;;3.70;;
12962;SDS011;6546;49.882;8.666;2022-09-23T10:19:24;4.50;;;3.43;;
12962;SDS011;6546;49.882;8.666;2022-09-23T10:21:54;4.13;;;3.40;;
12962;SDS011;6546;49.882;8.666;2022-09-23T10:24:24;3.67;;;3.37;;
12962;SDS011;6546;49.882;8.666;2022-09-23T10:26:56;6.73;;;3.33;;
12962;SDS011;6546;49.882;8.666;2022-09-23T10:29:28;5.07;;;3.50;;
12962;SDS011;6546;49.882;8.666;2022-09-23T10:32:12;4.27;;;3.33;;
12962;SDS011;6546;49.882;8.666;2022-09-23T10:34:54;3.63;;;3.27;;
12962;SDS011;6546;49.882;8.666;2022-09-23T10:37:29;3.50;;;2.90;;
12962;SDS011;6546;49.882;8.666;2022-09-23T10:39:59;4.00;;;3.70;;
12962;SDS011;6546;49.882;8.666;2022-09-23T10:42:52;5.93;;;3.67;;
12962;SDS011;6546;49.882;8.666;2022-09-23T10:45:46;3.40;;;3.10;;
12962;SDS011;6546;49.882;8.666;2022-09-23T10:48:35;5.13;;;3.70;;
12962;SDS011;6546;49.882;8.666;2022-09-23T10:51:12;6.10;;;3.80;;
12962;SDS011;6546;49.882;8.666;2022-09-23T10:53:45;5.73;;;3.60;;
12962;SDS011;6546;49.882;8.666;2022-09-23T10:56:25;3.40;;;3.07;;
12962;SDS011;6546;49.882;8.666;2022-09-23T11:01:55;4.87;;;3.27;;
12962;SDS011;6546;49.882;8.666;2022-09-23T11:04:47;6.17;;;3.27;;
12962;SDS011;6546;49.882;8.666;2022-09-23T11:07:33;4.53;;;3.20;;
12962;SDS011;6546;49.882;8.666;2022-09-23T11:10:15;6.20;;;3.57;;
12962;SDS011;6546;49.882;8.666;2022-09-23T11:13:03;3.30;;;3.00;;
12962;SDS011;6546;49.882;8.666;2022-09-23T11:15:40;4.20;;;3.30;;
12962;SDS011;6546;49.882;8.666;2022-09-23T11:18:24;3.23;;;2.90;;
12962;SDS011;6546;49.882;8.666;2022-09-23T11:21:08;3.50;;;3.20;;
12962;SDS011;6546;49.882;8.666;2022-09-23T11:24:02;4.03;;;2.97;;
12962;SDS011;6546;49.882;8.666;2022-09-23T11:26:47;4.13;;;3.37;;
12962;SDS011;6546;49.882;8.666;2022-09-23T11:29:32;3.57;;;3.23;;
12962;SDS011;6546;49.882;8.666;2022-09-23T11:35:12;4.17;;;3.20;;
12962;SDS011;6546;49.882;8.666;2022-09-23T11:37:47;5.70;;;3.20;;
12962;SDS011;6546;49.882;8.666;2022-09-23T11:40:20;6.97;;;3.83;;
12962;SDS011;6546;49.882;8.666;2022-09-23T11:42:51;4.40;;;4.00;;
12962;SDS011;6546;49.882;8.666;2022-09-23T11:45:23;5.57;;;3.23;;
12962;SDS011;6546;49.882;8.666;2022-09-23T11:47:57;4.97;;;3.33;;
12962;SDS011;6546;49.882;8.666;2022-09-23T11:50:31;4.17;;;3.10;;
12962;SDS011;6546;49.882;8.666;2022-09-23T11:53:03;3.13;;;2.83;;
12962;SDS011;6546;49.882;8.666;2022-09-23T11:55:34;4.50;;;2.90;;
12962;SDS011;6546;49.882;8.666;2022-09-23T11:58:12;8.33;;;2.90;;
12962;SDS011;6546;49.882;8.666;2022-09-23T12:00:44;4.93;;;3.10;;
12962;SDS011;6546;49.882;8.666;2022-09-23T12:03:18;5.90;;;2.90;;
12962;SDS011;6546;49.882;8.666;2022-09-23T12:05:51;6.10;;;3.50;;
12962;SDS011;6546;49.882;8.666;2022-09-23T12:08:26;3.83;;;3.10;;
12962;SDS011;6546;49.882;8.666;2022-09-23T12:10:57;6.13;;;3.07;;
12962;SDS011;6546;49.882;8.666;2022-09-23T12:13:33;4.20;;;3.80;;
12962;SDS011;6546;49.882;8.666;2022-09-23T12:19:29;7.67;;;3.40;;
12962;SDS011;6546;49.882;8.666;2022-09-23T12:22:25;4.20;;;3.80;;
12962;SDS011;6546;49.882;8.666;2022-09-23T12:25:08;4.47;;;3.53;;
12962;SDS011;6546;49.882;8.666;2022-09-23T12:27:53;5.00;;;4.10;;
12962;SDS011;6546;49.882;8.666;2022-09-23T12:30:26;3.70;;;3.30;;
12962;SDS011;6546;49.882;8.666;2022-09-23T12:33:04;4.10;;;3.17;;
12962;SDS011;6546;49.882;8.666;2022-09-23T12:35:34;4.17;;;3.20;;
12962;SDS011;6546;49.882;8.666;2022-09-23T12:38:10;5.07;;;2.90;;
12962;SDS011;6546;49.882;8.666;2022-09-23T12:40:38;3.40;;;3.10;;
12962;SDS011;6546;49.882;8.666;2022-09-23T12:43:15;3.27;;;2.63;;
12962;SDS011;6546;49.882;8.666;2022-09-23T12:45:42;3.80;;;3.37;;
12962;SDS011;6546;49.882;8.666;2022-09-23T12:51:13;4.20;;;3.10;;
12962;SDS011;6546;49.882;8.666;2022-09-23T12:53:49;4.70;;;2.63;;
12962;SDS011;6546;49.882;8.666;2022-09-23T12:56:25;4.40;;;3.43;;
12962;SDS011;6546;49.882;8.666;2022-09-23T12:59:08;6.10;;;3.43;;
12962;SDS011;6546;49.882;8.666;2022-09-23T13:01:38;4.07;;;3.20;;
12962;SDS011;6546;49.882;8.666;2022-09-23T13:04:05;4.03;;;3.30;;
12962;SDS011;6546;49.882;8.666;2022-09-23T13:07:12;4.67;;;3.30;;
12962;SDS011;6546;49.882;8.666;2022-09-23T13:09:41;4.83;;;2.90;;
12962;SDS011;6546;49.882;8.666;2022-09-23T13:12:14;3.50;;;3.20;;
12962;SDS011;6546;49.882;8.666;2022-09-23T13:14:47;3.13;;;2.83;;
12962;SDS011;6546;49.882;8.666;2022-09-23T13:17:21;3.03;;;2.73;;
12962;SDS011;6546;49.882;8.666;2022-09-23T13:19:57;5.67;;;3.10;;
12962;SDS011;6546;49.882;8.666;2022-09-23T13:23:21;2.73;;;2.53;;
12962;SDS011;6546;49.882;8.666;2022-09-23T13:25:49;4.33;;;3.37;;
12962;SDS011;6546;49.882;8.666;2022-09-23T13:28:28;5.57;;;3.47;;
12962;SDS011;6546;49.882;8.666;2022-09-23T13:30:59;5.03;;;3.67;;
12962;SDS011;6546;49.882;8.666;2022-09-23T13:33:30;3.90;;;3.23;;
12962;SDS011;6546;49.882;8.666;2022-09-23T13:36:02;4.03;;;2.97;;
12962;SDS011;6546;49.882;8.666;2022-09-23T13:38:37;4.77;;;3.10;;
12962;SDS011;6546;49.882;8.666;2022-09-23T13:41:05;3.93;;;3.03;;
12962;SDS011;6546;49.882;8.666;2022-09-23T13:43:36;3.57;;;3.00;;
12962;SDS011;6546;49.882;8.666;2022-09-23T13:46:08;4.20;;;2.90;;
12962;SDS011;6546;49.882;8.666;2022-09-23T13:48:38;4.30;;;3.90;;
12962;SDS011;6546;49.882;8.666;2022-09-23T13:51:08;7.20;;;4.30;;
12962;SDS011;6546;49.882;8.666;2022-09-23T13:53:36;5.87;;;4.37;;
12962;SDS011;6546;49.882;8.666;2022-09-23T13:56:04;5.67;;;3.60;;
12962;SDS011;6546;49.882;8.666;2022-09-23T13:58:32;4.03;;;3.40;;
12962;SDS011;6546;49.882;8.666;2022-09-23T14:01:00;3.37;;;2.97;;
12962;SDS011;6546;49.882;8.666;2022-09-23T14:03:29;4.20;;;3.10;;
12962;SDS011;6546;49.882;8.666;2022-09-23T14:05:57;5.20;;;2.90;;
12962;SDS011;6546;49.882;8.666;2022-09-23T14:08:25;3.20;;;2.90;;
12962;SDS011;6546;49.882;8.666;2022-09-23T14:10:53;3.33;;;3.03;;
12962;SDS011;6546;49.882;8.666;2022-09-23T14:13:21;4.77;;;3.23;;
12962;SDS011;6546;49.882;8.666;2022-09-23T14:15:51;5.83;;;3.63;;
12962;SDS011;6546;49.882;8.666;2022-09-23T14:18:24;5.57;;;3.27;;
12962;SDS011;6546;49.882;8.666;2022-09-23T14:20:55;3.30;;;2.97;;
12962;SDS011;6546;49.882;8.666;2022-09-23T14:23:22;3.50;;;3.20;;
12962;SDS011;6546;49.882;8.666;2022-09-23T14:25:49;4.70;;;3.00;;
12962;SDS011;6546;49.882;8.666;2022-09-23T14:28:17;4.97;;;3.23;;
12962;SDS011;6546;49.882;8.666;2022-09-23T14:30:46;4.73;;;2.97;;
12962;SDS011;6546;49.882;8.666;2022-09-23T14:33:16;6.27;;;3.57;;
12962;SDS011;6546;49.882;8.666;2022-09-23T14:35:46;6.83;;;3.80;;
12962;SDS011;6546;49.882;8.666;2022-09-23T14:38:21;9.97;;;6.90;;
12962;SDS011;6546;49.882;8.666;2022-09-23T14:41:15;8.33;;;5.13;;
12962;SDS011;6546;49.882;8.666;2022-09-23T14:43:49;4.97;;;3.87;;
12962;SDS011;6546;49.882;8.666;2022-09-23T14:46:20;6.90;;;3.27;;
12962;SDS011;6546;49.882;8.666;2022-09-23T14:48:51;4.50;;;3.20;;
12962;SDS011;6546;49.882;8.666;2022-09-23T14:51:31;5.10;;;3.10;;
12962;SDS011;6546;49.882;8.666;2022-09-23T14:56:56;6.37;;;3.20;;
12962;SDS011;6546;49.882;8.666;2022-09-23T14:59:24;5.50;;;3.13;;
12962;SDS011;6546;49.882;8.666;2022-09-23T15:01:53;3.37;;;2.90;;
12962;SDS011;6546;49.882;8.666;2022-09-23T15:04:26;6.20;;;2.87;;
12962;SDS011;6546;49.882;8.666;2022-09-23T15:06:57;5.03;;;2.80;;
12962;SDS011;6546;49.882;8.666;2022-09-23T15:09:29;3.97;;;3.33;;
12962;SDS011;6546;49.882;8.666;2022-09-23T15:11:58;4.63;;;2.80;;
12962;SDS011;6546;49.882;8.666;2022-09-23T15:14:26;4.03;;;3.20;;
12962;SDS011;6546;49.882;8.666;2022-09-23T15:16:58;3.67;;;2.77;;
12962;SDS011;6546;49.882;8.666;2022-09-23T15:19:26;4.47;;;3.13;;
12962;SDS011;6546;49.882;8.666;2022-09-23T15:21:55;4.33;;;2.80;;
12962;SDS011;6546;49.882;8.666;2022-09-23T15:24:37;4.40;;;2.73;;
12962;SDS011;6546;49.882;8.666;2022-09-23T15:27:10;5.43;;;3.30;;
12962;SDS011;6546;49.882;8.666;2022-09-23T15:29:51;3.87;;;2.80;;
12962;SDS011;6546;49.882;8.666;2022-09-23T15:32:18;3.00;;;2.70;;
12962;SDS011;6546;49.882;8.666;2022-09-23T15:34:46;3.63;;;3.00;;
12962;SDS011;6546;49.882;8.666;2022-09-23T15:37:13;4.53;;;2.80;;
12962;SDS011;6546;49.882;8.666;2022-09-23T15:39:42;3.23;;;2.93;;
12962;SDS011;6546;49.882;8.666;2022-09-23T15:42:08;2.93;;;2.70;;
12962;SDS011;6546;49.882;8.666;2022-09-23T15:44:35;4.63;;;3.17;;
12962;SDS011;6546;49.882;8.666;2022-09-23T15:47:02;6.00;;;2.73;;
12962;SDS011;6546;49.882;8.666;2022-09-23T15:49:30;3.47;;;2.53;;
12962;SDS011;6546;49.882;8.666;2022-09-23T15:52:00;4.03;;;3.10;;
12962;SDS011;6546;49.882;8.666;2022-09-23T15:54:28;4.13;;;3.20;;